Time;durP1;ratioP1;P1;durP2;ratioP2;P2;SDS_P1;SDS_P2;PMS_P1;PMS_P2;Temp;Humidity;BMP_temperature;BMP_pressure;BME280_temperature;BME280_humidity;BME280_pressure;Samples;Min_cycle;Max_cycle;Signal;HPM_P1;HPM_P2
2023/01/07 00:00:50;;;;;;;;;1.00;1.00;;;;;12.46;71.75;101547.19;5015815;28;46257;-85
2023/01/07 00:03:16;;;;;;;;;2.00;2.00;;;;;12.46;71.94;101545.44;5015879;28;53045;-86
2023/01/07 00:05:42;;;;;;;;;2.00;1.00;;;;;12.44;71.69;101542.00;5016280;28;45305;-86
2023/01/07 00:08:08;;;;;;;;;1.75;1.75;;;;;12.42;71.78;101528.13;5016265;28;45402;-87
2023/01/07 00:10:34;;;;;;;;;1.00;1.00;;;;;12.42;71.05;101540.31;5032669;28;45292;-86
2023/01/07 00:13:00;;;;;;;;;1.00;1.00;;;;;12.42;71.09;101532.47;5017342;28;45396;-86
2023/01/07 00:15:25;;;;;;;;;1.00;1.00;;;;;12.40;70.78;101522.91;5016885;28;45491;-86
2023/01/07 00:17:51;;;;;;;;;1.00;1.00;;;;;12.39;71.02;101515.16;4999449;28;45465;-86
2023/01/07 00:20:16;;;;;;;;;0.75;0.75;;;;;12.39;70.89;101520.38;4998663;28;66406;-86
2023/01/07 00:22:41;;;;;;;;;1.25;1.00;;;;;12.41;70.95;101502.91;5015940;28;45431;-86
2023/01/07 00:25:07;;;;;;;;;1.50;1.50;;;;;12.40;71.14;101506.41;5017016;28;46191;-86
2023/01/07 00:27:32;;;;;;;;;0.00;0.00;;;;;12.43;70.63;101497.66;5016947;28;45309;-86
2023/01/07 00:29:58;;;;;;;;;2.50;0.50;;;;;12.42;70.92;101504.63;5016024;28;65605;-86
2023/01/07 00:32:46;;;;;;;;;1.00;1.00;;;;;12.43;70.77;101500.28;5015298;28;57625;-86
2023/01/07 00:35:21;;;;;;;;;2.25;1.00;;;;;12.43;70.28;101489.81;5015875;28;45371;-86
2023/01/07 00:37:49;;;;;;;;;1.00;1.00;;;;;12.43;70.45;101493.28;5016765;28;45444;-86
2023/01/07 00:40:15;;;;;;;;;1.50;1.00;;;;;12.47;70.03;101491.47;5015438;28;47350;-86
2023/01/07 00:45:24;;;;;;;;;2.00;0.50;;;;;12.46;70.08;101487.13;5015574;28;45355;-86
2023/01/07 00:47:53;;;;;;;;;1.00;1.00;;;;;12.46;70.31;101474.94;5016821;28;45441;-86
2023/01/07 00:50:20;;;;;;;;;1.00;1.00;;;;;12.48;69.94;101469.66;5015461;28;46171;-86
2023/01/07 00:52:46;;;;;;;;;3.00;2.00;;;;;12.47;70.05;101471.41;5016454;28;45589;-86
2023/01/07 00:55:13;;;;;;;;;1.00;1.00;;;;;12.45;69.93;101469.75;5016732;28;45378;-86
2023/01/07 00:57:42;;;;;;;;;0.50;0.25;;;;;12.43;69.64;101468.94;5016264;28;45450;-86
2023/01/07 01:00:12;;;;;;;;;1.00;1.00;;;;;12.42;69.59;101464.59;5014952;28;48185;-86
2023/01/07 01:02:37;;;;;;;;;2.00;1.00;;;;;12.43;69.91;101453.28;5016473;28;45883;-86
2023/01/07 01:05:03;;;;;;;;;1.00;1.00;;;;;12.40;69.64;101455.03;5016584;28;45473;-86
2023/01/07 01:07:28;;;;;;;;;1.00;1.00;;;;;12.41;69.40;101450.69;5016542;28;45406;-86
2023/01/07 01:09:54;;;;;;;;;2.00;1.00;;;;;12.40;69.35;101447.22;5014894;28;52212;-85
2023/01/07 01:12:19;;;;;;;;;1.00;1.00;;;;;12.41;69.66;101448.09;5015473;28;65623;-86
2023/01/07 01:14:44;;;;;;;;;1.00;1.00;;;;;12.42;69.40;101439.34;5014755;28;45361;-85
2023/01/07 01:17:10;;;;;;;;;1.00;1.00;;;;;12.42;69.18;101438.50;5016423;28;45369;-85
2023/01/07 01:19:35;;;;;;;;;1.00;1.00;;;;;12.42;69.42;101433.28;4998114;28;54428;-85
2023/01/07 01:22:00;;;;;;;;;0.50;0.50;;;;;12.42;69.21;101434.13;5016172;28;46442;-86
2023/01/07 01:24:26;;;;;;;;;1.00;0.00;;;;;12.40;68.79;101434.16;5015557;28;57537;-86
2023/01/07 01:26:51;;;;;;;;;0.00;0.00;;;;;12.39;69.22;101426.38;5016151;28;45426;-86
2023/01/07 01:29:16;;;;;;;;;1.25;0.00;;;;;12.37;68.47;101423.81;5015862;28;46453;-87
2023/01/07 01:31:42;;;;;;;;;2.25;1.00;;;;;12.36;69.09;101422.06;5014708;28;45463;-86
2023/01/07 01:34:07;;;;;;;;;0.50;0.50;;;;;12.37;69.27;101415.97;5014796;28;45435;-86
2023/01/07 01:36:32;;;;;;;;;0.75;0.75;;;;;12.37;68.73;101418.59;5015514;28;56738;-86
2023/01/07 01:38:58;;;;;;;;;1.25;1.00;;;;;12.34;68.53;101413.44;5015817;28;45302;-86
2023/01/07 01:41:23;;;;;;;;;1.25;1.00;;;;;12.33;68.64;101414.34;5015740;28;45321;-86
2023/01/07 01:43:49;;;;;;;;;0.00;0.00;;;;;12.32;67.99;101404.78;5014759;28;61745;-85
2023/01/07 01:46:25;;;;;;;;;0.00;0.00;;;;;12.34;68.50;101409.97;5014850;28;45350;-86
2023/01/07 01:48:54;;;;;;;;;1.00;1.00;;;;;12.33;68.57;101405.63;5014646;28;45554;-86
2023/01/07 01:51:23;;;;;;;;;3.00;1.00;;;;;12.33;68.83;101400.41;5014490;28;45374;-86
2023/01/07 01:53:49;;;;;;;;;0.25;0.00;;;;;12.32;68.59;101394.34;5015799;28;45459;-85
2023/01/07 01:56:28;;;;;;;;;1.00;1.00;;;;;12.34;69.04;101394.31;5014312;28;45446;-85
2023/01/07 01:58:57;;;;;;;;;0.50;0.50;;;;;12.32;68.53;101393.50;5014433;28;46348;-86
2023/01/07 02:01:22;;;;;;;;;1.00;1.00;;;;;12.35;68.55;101393.41;5014470;28;45642;-86
2023/01/07 02:03:48;;;;;;;;;0.00;0.00;;;;;12.34;68.42;101383.88;5013755;28;61703;-86
2023/01/07 02:06:20;;;;;;;;;4.00;1.00;;;;;12.31;68.18;101386.53;5013961;28;63862;-86
2023/01/07 02:08:45;;;;;;;;;0.00;0.00;;;;;12.28;68.53;101382.28;5014421;28;46778;-86
2023/01/07 02:11:23;;;;;;;;;0.25;0.25;;;;;12.29;68.33;101383.97;5015605;28;68507;-86
2023/01/07 02:14:20;;;;;;;;;2.00;1.00;;;;;12.28;68.54;101377.06;5019028;28;45278;-86
2023/01/07 02:16:57;;;;;;;;;0.00;0.00;;;;;12.28;68.61;101382.28;4957759;28;45311;-86
2023/01/07 02:19:25;;;;;;;;;2.00;2.00;;;;;12.27;68.68;101374.47;4957766;28;45821;-85
2023/01/07 02:21:59;;;;;;;;;0.00;0.00;;;;;12.25;68.39;101364.06;4957712;28;45451;-86
2023/01/07 02:25:05;;;;;;;;;1.25;1.00;;;;;12.28;68.61;101376.19;4941725;28;45463;-86
2023/01/07 02:28:08;;;;;;;;;0.00;0.00;;;;;12.29;68.39;101370.06;4941251;28;45542;-86
2023/01/07 02:30:49;;;;;;;;;0.00;0.00;;;;;12.28;68.48;101361.38;4941430;28;48500;-86
2023/01/07 02:33:41;;;;;;;;;1.25;0.00;;;;;12.30;68.05;101361.34;4957699;28;45761;-87
2023/01/07 02:36:20;;;;;;;;;0.25;0.25;;;;;12.31;68.02;101357.84;4957711;28;45413;-86
2023/01/07 02:39:04;;;;;;;;;0.50;0.00;;;;;12.33;67.94;101356.91;4957729;28;45494;-86
2023/01/07 02:41:55;;;;;;;;;0.50;0.50;;;;;12.33;68.09;101354.31;4957094;28;46643;-86
2023/01/07 02:44:41;;;;;;;;;3.00;1.25;;;;;12.34;68.18;101350.78;4925225;28;46426;-86
2023/01/07 02:47:29;;;;;;;;;1.25;1.00;;;;;12.33;67.71;101351.69;4925240;28;45458;-86
2023/01/07 02:49:54;;;;;;;;;1.00;0.25;;;;;12.34;68.01;101344.72;4941294;28;45430;-86
2023/01/07 02:52:27;;;;;;;;;0.00;0.00;;;;;12.34;68.27;101336.88;4937826;28;45521;-86
2023/01/07 02:55:14;;;;;;;;;0.00;0.00;;;;;12.34;67.75;101336.88;5013717;28;45653;-86
2023/01/07 02:58:07;;;;;;;;;2.00;0.00;;;;;12.33;67.56;101330.81;4997493;28;45474;-86
2023/01/07 03:00:41;;;;;;;;;0.50;0.50;;;;;12.30;67.68;101324.81;4998735;28;45337;-86
2023/01/07 03:03:28;;;;;;;;;0.00;0.00;;;;;12.28;67.57;101319.63;4998673;28;46559;-86
2023/01/07 03:06:12;;;;;;;;;1.00;0.00;;;;;12.27;67.70;101309.22;4998484;28;45354;-86
2023/01/07 03:08:54;;;;;;;;;0.00;0.00;;;;;12.30;68.59;101303.94;4998405;28;45442;-86
2023/01/07 03:11:22;;;;;;;;;0.75;0.75;;;;;12.30;67.71;101304.78;4997379;28;45351;-86
2023/01/07 03:13:57;;;;;;;;;0.00;0.00;;;;;12.30;67.59;101304.78;4996813;28;58064;-86
2023/01/07 03:16:28;;;;;;;;;2.00;0.00;;;;;12.29;67.07;101302.19;4997079;28;45698;-86
2023/01/07 03:19:15;;;;;;;;;1.00;0.00;;;;;12.30;67.13;101296.09;4997239;28;45449;-86
2023/01/07 03:21:40;;;;;;;;;0.75;0.00;;;;;12.33;67.56;101296.88;5013522;28;45488;-86
2023/01/07 03:24:08;;;;;;;;;0.00;0.00;;;;;12.34;67.40;101285.50;4996385;28;45443;-86
2023/01/07 03:26:40;;;;;;;;;0.25;0.25;;;;;12.35;67.08;101279.41;5013558;28;45776;-86
2023/01/07 03:29:08;;;;;;;;;0.00;0.00;;;;;12.38;67.27;101274.09;4996980;28;45426;-85
2023/01/07 03:31:35;;;;;;;;;1.00;1.00;;;;;12.42;67.40;101268.78;4997057;28;45596;-86
2023/01/07 03:34:06;;;;;;;;;1.00;0.00;;;;;12.42;67.21;101269.63;4996713;28;46747;-86
2023/01/07 03:36:36;;;;;;;;;2.00;0.00;;;;;12.42;66.83;101269.63;4997975;28;45603;-86
2023/01/07 03:39:02;;;;;;;;;0.00;0.00;;;;;12.40;66.67;101263.59;4996722;28;45523;-86
2023/01/07 03:44:11;;;;;;;;;0.00;0.00;;;;;12.40;66.53;101254.00;5016609;28;45724;-86
2023/01/07 03:46:37;;;;;;;;;0.00;0.00;;;;;12.43;66.66;101257.44;5016556;28;48731;-86
2023/01/07 03:49:03;;;;;;;;;0.75;0.00;;;;;12.43;66.34;101250.47;5016708;28;45340;-86
2023/01/07 03:51:28;;;;;;;;;0.00;0.00;;;;;12.40;65.77;101247.94;5017747;28;45376;-86
2023/01/07 03:53:54;;;;;;;;;0.00;0.00;;;;;12.40;65.83;101238.34;5017238;28;47138;-86
2023/01/07 03:56:19;;;;;;;;;0.00;0.00;;;;;12.40;65.29;101234.88;5015918;28;53652;-86
2023/01/07 03:58:45;;;;;;;;;0.00;0.00;;;;;12.36;65.56;101234.13;5017773;28;45354;-86
2023/01/07 04:01:10;;;;;;;;;0.25;0.25;;;;;12.34;65.27;101230.69;5015674;28;63926;-86
2023/01/07 04:03:35;;;;;;;;;1.25;0.00;;;;;12.35;65.52;101227.19;5016017;28;45673;-86
2023/01/07 04:06:01;;;;;;;;;1.00;0.00;;;;;12.36;64.37;101221.06;5016839;28;63033;-86
2023/01/07 04:08:26;;;;;;;;;0.25;0.00;;;;;12.39;65.06;101214.91;5016526;28;62579;-86
2023/01/07 04:10:52;;;;;;;;;0.75;0.00;;;;;12.40;65.13;101211.38;5017118;28;45491;-86
2023/01/07 04:13:17;;;;;;;;;0.00;0.00;;;;;12.38;65.23;101200.13;5032121;28;60637;-86
2023/01/07 04:15:43;;;;;;;;;0.00;0.00;;;;;12.38;65.64;101203.59;5016084;28;45335;-86
2023/01/07 04:18:09;;;;;;;;;1.00;0.00;;;;;12.37;64.94;101201.06;5017218;28;45329;-86
2023/01/07 04:20:34;;;;;;;;;0.00;0.00;;;;;12.32;64.41;101188.13;5016225;28;45381;-86
2023/01/07 04:23:00;;;;;;;;;0.00;0.00;;;;;12.32;64.25;101185.50;4998932;28;47152;-87
2023/01/07 04:25:25;;;;;;;;;3.00;0.00;;;;;12.31;64.34;101175.09;5017078;28;45318;-86
2023/01/07 04:27:50;;;;;;;;;0.00;0.00;;;;;12.31;64.30;101169.88;5015241;28;60610;-85
2023/01/07 04:30:16;;;;;;;;;0.25;0.00;;;;;12.27;64.08;101163.91;5016201;28;45423;-86
2023/01/07 04:32:41;;;;;;;;;0.00;0.00;;;;;12.25;63.99;101157.88;4998455;28;47247;-86
2023/01/07 04:35:07;;;;;;;;;2.00;0.00;;;;;12.22;63.90;101149.28;5017026;28;45254;-86
2023/01/07 04:37:32;;;;;;;;;0.00;0.00;;;;;12.18;64.55;101141.56;5016837;28;45279;-86
2023/01/07 04:39:57;;;;;;;;;0.00;0.00;;;;;12.18;64.03;101146.78;5015777;28;45311;-86
2023/01/07 04:42:23;;;;;;;;;1.25;0.00;;;;;12.15;64.27;101133.81;4998398;28;64098;-86
2023/01/07 04:44:48;;;;;;;;;0.00;0.00;;;;;12.11;63.96;101134.78;5015482;28;45436;-87
2023/01/07 04:47:13;;;;;;;;;0.00;0.00;;;;;12.04;64.34;101124.59;5016464;28;51073;-86
2023/01/07 04:49:39;;;;;;;;;0.25;0.00;;;;;12.02;64.88;101122.00;5015575;28;45324;-87
2023/01/07 04:52:04;;;;;;;;;0.50;0.00;;;;;11.98;64.61;101107.34;5015934;28;50786;-86
2023/01/07 04:54:30;;;;;;;;;0.00;0.00;;;;;11.95;65.18;101105.66;5015544;28;45386;-87
2023/01/07 04:56:55;;;;;;;;;1.00;1.00;;;;;11.90;65.14;101101.47;5015556;28;45301;-86
2023/01/07 04:59:21;;;;;;;;;1.00;0.00;;;;;11.86;65.52;101087.63;5015585;28;45453;-86
2023/01/07 05:01:46;;;;;;;;;0.00;0.00;;;;;11.82;65.78;101088.63;5015326;28;47564;-87
2023/01/07 05:04:12;;;;;;;;;0.00;0.00;;;;;11.77;66.19;101074.84;5015772;28;59165;-86
2023/01/07 05:06:37;;;;;;;;;0.00;0.00;;;;;11.73;66.69;101075.84;5014697;28;55543;-86
2023/01/07 05:09:02;;;;;;;;;0.00;0.00;;;;;11.67;66.67;101074.28;4998665;28;47733;-86
2023/01/07 05:11:28;;;;;;;;;0.25;0.00;;;;;11.61;66.63;101077.06;5014908;28;47265;-86
2023/01/07 05:13:53;;;;;;;;;0.00;0.00;;;;;11.55;66.94;101074.59;5014999;28;45434;-86
2023/01/07 05:16:18;;;;;;;;;0.00;0.00;;;;;11.49;67.56;101062.59;4998383;28;45327;-86
2023/01/07 05:18:44;;;;;;;;;1.25;0.50;;;;;11.46;67.74;101065.31;5014737;28;55857;-86
2023/01/07 05:21:10;;;;;;;;;0.25;0.25;;;;;11.41;67.88;101060.19;5014784;28;46224;-86
2023/01/07 05:23:35;;;;;;;;;3.00;1.00;;;;;11.40;68.17;101068.94;5016190;28;45472;-86
2023/01/07 05:26:01;;;;;;;;;2.00;0.00;;;;;11.37;68.45;101065.56;5016317;28;45357;-86
2023/01/07 05:28:27;;;;;;;;;0.00;0.00;;;;;11.32;68.80;101057.84;5014988;28;45338;-87
2023/01/07 05:30:52;;;;;;;;;1.00;1.00;;;;;11.27;68.54;101059.72;5016092;28;45491;-87
2023/01/07 05:33:17;;;;;;;;;0.00;0.00;;;;;11.22;69.39;101059.00;5014441;28;59266;-86
2023/01/07 05:35:43;;;;;;;;;0.75;0.75;;;;;11.18;69.44;101046.94;4997673;28;53142;-85
2023/01/07 05:38:08;;;;;;;;;2.00;0.00;;;;;11.15;69.71;101052.25;5016098;28;45512;-86
2023/01/07 05:40:33;;;;;;;;;1.00;1.00;;;;;11.10;69.86;101047.13;5014296;28;60385;-86
2023/01/07 05:42:59;;;;;;;;;1.00;1.00;;;;;11.06;70.12;101050.72;5014454;28;45565;-86
2023/01/07 05:45:24;;;;;;;;;2.75;0.00;;;;;11.00;70.31;101041.31;4997092;28;45435;-86
2023/01/07 05:47:50;;;;;;;;;1.00;1.00;;;;;10.96;70.39;101044.91;5015709;28;49433;-86
2023/01/07 05:50:15;;;;;;;;;1.00;1.00;;;;;10.96;71.19;101038.84;4997421;28;51859;-84
2023/01/07 05:52:40;;;;;;;;;2.75;1.00;;;;;10.91;71.01;101043.31;5014520;28;45308;-86
2023/01/07 05:55:07;;;;;;;;;0.75;0.75;;;;;10.87;70.94;101052.09;5015373;28;58237;-87
2023/01/07 05:57:32;;;;;;;;;1.00;1.00;;;;;10.83;71.42;101052.16;5015946;28;45254;-86
2023/01/07 05:59:58;;;;;;;;;2.00;1.50;;;;;10.78;71.63;101043.59;5014506;28;46963;-86
2023/01/07 06:02:23;;;;;;;;;2.50;2.00;;;;;10.74;71.60;101056.75;5014462;28;45326;-86
2023/01/07 06:04:48;;;;;;;;;1.75;1.00;;;;;10.69;71.97;101056.84;4997438;28;47680;-86
2023/01/07 06:07:14;;;;;;;;;1.75;1.75;;;;;10.69;71.92;101050.78;5015647;28;45501;-86
2023/01/07 06:09:39;;;;;;;;;2.00;2.00;;;;;10.68;72.05;101046.47;5014229;28;45460;-86
2023/01/07 06:12:05;;;;;;;;;1.25;1.25;;;;;10.65;71.74;101048.25;5014039;28;46230;-86
2023/01/07 06:14:30;;;;;;;;;1.00;1.00;;;;;10.65;72.27;101048.25;5014325;28;45383;-86
2023/01/07 06:16:55;;;;;;;;;1.00;1.00;;;;;10.62;72.31;101043.13;4997782;28;45440;-86
2023/01/07 06:19:21;;;;;;;;;5.25;2.25;;;;;10.58;72.32;101041.47;5015205;28;46152;-86
2023/01/07 06:21:47;;;;;;;;;3.50;1.00;;;;;10.54;72.51;101044.22;5015382;28;45762;-85
2023/01/07 06:24:13;;;;;;;;;3.00;1.00;;;;;10.52;72.78;101033.81;5014122;28;45407;-85
2023/01/07 06:26:38;;;;;;;;;3.00;1.00;;;;;10.47;72.64;101030.47;5014204;28;45531;-86
2023/01/07 06:29:04;;;;;;;;;3.50;2.00;;;;;10.44;72.86;101031.41;5006092;28;51354;-96
2023/01/07 06:31:34;;;;;;;;;2.25;1.25;;;;;10.40;73.09;101034.09;5250783;22;44910;-96
2023/01/07 06:34:02;;;;;;;;;1.50;1.50;;;;;10.35;73.13;101036.81;4995003;28;45427;-96
2023/01/07 06:36:35;;;;;;;;;2.00;2.00;;;;;10.33;73.07;101030.81;5318835;22;44882;-95
2023/01/07 06:39:00;;;;;;;;;2.00;2.00;;;;;10.30;73.78;101030.00;5073073;28;45539;-96
2023/01/07 06:41:26;;;;;;;;;2.00;2.00;;;;;10.25;73.65;101028.34;5057894;28;44735;-95
2023/01/07 06:43:51;;;;;;;;;3.00;1.00;;;;;10.22;73.77;101033.63;5033163;28;44941;-96
2023/01/07 06:46:30;;;;;;;;;;;;;;;;;;;;;
2023/01/07 06:49:41;;;;;;;;;5.50;3.00;;;;;10.18;73.84;101033.75;5054523;28;45249;-96
2023/01/07 06:55:21;;;;;;;;;1.25;1.25;;;;;10.21;74.30;101016.28;5610208;22;46078;-96
2023/01/07 06:57:49;;;;;;;;;3.50;1.75;;;;;10.26;74.11;101011.00;5041046;28;44834;-96
2023/01/07 07:00:16;;;;;;;;;3.00;2.00;;;;;10.30;74.22;101011.78;5036205;28;45327;-96
2023/01/07 07:02:42;;;;;;;;;0.75;0.75;;;;;10.34;74.11;101003.03;5044321;28;44911;-96
2023/01/07 07:05:12;;;;;;;;;1.75;1.25;;;;;10.38;73.87;101005.53;5571733;22;45079;-94
2023/01/07 07:07:48;;;;;;;;;;;;;;;;;;;;;
2023/01/07 07:10:14;;;;;;;;;2.00;1.50;;;;;10.39;73.34;101002.03;5021946;28;75629;-96
2023/01/07 07:12:39;;;;;;;;;1.00;1.00;;;;;10.39;73.12;100999.44;5002643;28;45452;-96
2023/01/07 07:15:06;;;;;;;;;3.75;1.25;;;;;10.41;73.38;101002.84;5018916;28;45340;-95
2023/01/07 07:17:31;;;;;;;;;1.00;1.00;;;;;10.42;73.16;100993.31;5018527;28;45362;-95
2023/01/07 07:19:57;;;;;;;;;4.25;2.00;;;;;10.44;73.30;100999.34;5001871;28;56667;-93
2023/01/07 07:22:22;;;;;;;;;1.25;1.25;;;;;10.46;72.97;100992.34;5018726;28;45492;-95
2023/01/07 07:24:47;;;;;;;;;3.00;2.00;;;;;10.46;72.74;100987.97;5018542;28;45378;-94
2023/01/07 07:27:13;;;;;;;;;1.75;1.75;;;;;10.46;72.79;100989.75;5018610;28;45368;-94
2023/01/07 07:29:38;;;;;;;;;2.00;2.00;;;;;10.46;72.47;100968.91;5001736;28;47233;-96
2023/01/07 07:32:04;;;;;;;;;0.50;0.50;;;;;10.45;72.50;100973.25;5002438;28;45298;-94
2023/01/07 07:34:30;;;;;;;;;1.00;1.00;;;;;10.42;72.06;100967.28;5002055;28;45442;-96
2023/01/07 07:36:55;;;;;;;;;2.00;2.00;;;;;10.40;71.96;100969.03;5019734;28;45307;-95
2023/01/07 07:39:20;;;;;;;;;2.75;2.00;;;;;10.39;72.54;100957.78;5001747;28;47012;-95
2023/01/07 07:41:46;;;;;;;;;0.50;0.00;;;;;10.35;72.28;100961.38;5001675;28;45583;-95
2023/01/07 07:44:11;;;;;;;;;1.00;1.00;;;;;10.35;72.34;100969.19;5019946;28;45360;-94
2023/01/07 07:46:37;;;;;;;;;5.75;2.00;;;;;10.33;72.70;100951.91;5001689;28;45278;-93
2023/01/07 07:49:02;;;;;;;;;3.00;2.00;;;;;10.27;72.15;100958.94;5018406;28;47240;-89
2023/01/07 07:51:28;;;;;;;;;2.00;2.00;;;;;10.21;72.60;100960.81;5001256;28;45777;-92
2023/01/07 07:53:53;;;;;;;;;5.00;1.00;;;;;10.16;72.94;100966.13;5001363;28;45884;-92
2023/01/07 07:56:19;;;;;;;;;1.25;1.00;;;;;10.13;72.88;100961.00;5018093;28;45271;-93
2023/01/07 07:58:44;;;;;;;;;3.00;2.00;;;;;10.10;72.75;100960.22;5017769;28;47317;-95
2023/01/07 08:01:10;;;;;;;;;2.25;1.00;;;;;10.05;72.96;100952.53;5002338;28;45397;-96
2023/01/07 08:03:37;;;;;;;;;2.00;1.00;;;;;10.02;73.20;100955.19;5005396;28;45339;-96
2023/01/07 08:06:03;;;;;;;;;2.00;2.00;;;;;10.03;73.22;100955.16;5005134;28;45339;-96
2023/01/07 08:08:29;;;;;;;;;5.50;1.00;;;;;10.02;73.04;100950.00;5018567;28;45503;-96
2023/01/07 08:10:59;;;;;;;;;1.00;1.00;;;;;10.03;73.24;100956.91;5018802;28;45450;-96
2023/01/07 08:13:24;;;;;;;;;3.50;1.00;;;;;10.01;73.44;100951.75;5017961;28;45295;-95
2023/01/07 08:15:50;;;;;;;;;3.00;1.25;;;;;10.01;72.97;100950.88;5017974;28;45561;-95
2023/01/07 08:18:15;;;;;;;;;2.00;2.00;;;;;10.01;72.86;100951.75;5001076;28;47040;-94
2023/01/07 08:20:41;;;;;;;;;2.50;2.00;;;;;9.98;73.03;100949.19;5034892;28;45461;-94
2023/01/07 08:23:07;;;;;;;;;0.00;0.00;;;;;10.00;72.92;100955.22;5001450;28;45541;-94
2023/01/07 08:25:33;;;;;;;;;5.00;2.00;;;;;10.00;73.24;100947.41;5034220;28;45425;-93
2023/01/07 08:27:59;;;;;;;;;1.00;1.00;;;;;10.00;72.84;100944.81;5024629;28;46349;-96
2023/01/07 08:30:25;;;;;;;;;2.00;2.00;;;;;10.01;73.04;100936.13;5018994;28;45801;-94
2023/01/07 08:32:56;;;;;;;;;2.00;2.00;;;;;10.04;73.12;100924.78;5019458;28;45215;-90
2023/01/07 08:35:22;;;;;;;;;1.75;1.75;;;;;10.06;73.05;100923.84;5033749;28;45337;-92
2023/01/07 08:37:48;;;;;;;;;1.50;1.00;;;;;10.08;72.90;100918.63;4999786;28;48210;-91
2023/01/07 08:40:13;;;;;;;;;2.75;1.25;;;;;10.10;72.65;100923.78;5014154;28;47244;-93
2023/01/07 08:42:39;;;;;;;;;3.00;2.00;;;;;10.12;73.19;100902.03;4981345;28;45443;-94
2023/01/07 08:45:06;;;;;;;;;1.50;1.50;;;;;10.14;73.18;100904.63;5030102;28;45369;-94
2023/01/07 08:47:31;;;;;;;;;3.75;1.75;;;;;10.15;72.97;100888.13;5021850;28;48299;-95
2023/01/07 08:50:16;;;;;;;;;1.00;1.00;;;;;10.16;72.47;100889.81;5043094;28;53814;-96
2023/01/07 08:55:15;;;;;;;;;1.75;1.00;;;;;10.19;73.23;100887.16;4944686;28;46154;-94
2023/01/07 08:57:41;;;;;;;;;3.00;3.00;;;;;10.24;72.79;100888.75;4939639;28;56717;-96
2023/01/07 09:00:06;;;;;;;;;2.00;2.00;;;;;10.27;72.78;100885.22;4943264;28;45319;-92
2023/01/07 09:02:32;;;;;;;;;2.00;2.00;;;;;10.31;72.66;100878.22;4937853;28;45490;-89
2023/01/07 09:04:57;;;;;;;;;4.00;1.00;;;;;10.34;72.23;100865.13;4937616;28;45321;-91
2023/01/07 09:07:23;;;;;;;;;2.00;2.00;;;;;10.37;72.30;100863.31;4937499;28;47282;-88
2023/01/07 09:09:48;;;;;;;;;2.50;2.50;;;;;10.40;72.69;100855.44;4937035;28;54119;-90
2023/01/07 09:12:14;;;;;;;;;4.50;2.00;;;;;10.43;72.69;100844.06;4953095;28;45326;-91
2023/01/07 09:14:39;;;;;;;;;5.75;2.00;;;;;10.48;72.24;100838.75;4938873;28;46337;-88
2023/01/07 09:17:04;;;;;;;;;4.00;1.00;;;;;10.50;72.38;100843.00;4938481;28;47069;-87
2023/01/07 09:19:30;;;;;;;;;2.00;2.00;;;;;10.55;72.49;100840.28;4936386;28;51635;-87
2023/01/07 09:21:56;;;;;;;;;3.50;1.75;;;;;10.57;72.04;100836.75;4953222;28;45344;-85
2023/01/07 09:24:21;;;;;;;;;4.50;3.00;;;;;10.58;72.30;100833.25;4936608;28;45298;-87
2023/01/07 09:26:49;;;;;;;;;2.00;2.00;;;;;10.58;72.02;100822.81;4954520;28;45508;-91
2023/01/07 09:29:15;;;;;;;;;2.00;1.75;;;;;10.63;72.11;100825.31;4962113;28;45610;-88
2023/01/07 09:31:40;;;;;;;;;5.00;2.00;;;;;10.68;71.96;100807.81;4938120;28;45482;-91
2023/01/07 09:34:05;;;;;;;;;2.00;2.00;;;;;10.70;71.58;100807.75;4921452;28;56202;-88
2023/01/07 09:36:32;;;;;;;;;6.25;3.50;;;;;10.76;71.65;100802.41;4938156;28;49759;-89
2023/01/07 09:38:57;;;;;;;;;1.75;1.00;;;;;10.83;71.21;100783.94;4952975;28;45900;-89
2023/01/07 09:41:27;;;;;;;;;6.00;1.75;;;;;10.88;71.51;100782.94;4936768;28;45357;-88
2023/01/07 09:43:55;;;;;;;;;6.50;2.25;;;;;10.93;71.26;100789.72;4936452;28;45416;-88
2023/01/07 09:46:21;;;;;;;;;5.50;2.00;;;;;10.97;70.89;100767.91;4936473;28;46316;-88
2023/01/07 09:48:54;;;;;;;;;5.75;2.25;;;;;11.02;70.88;100779.03;4948201;28;45789;-86
2023/01/07 09:51:40;;;;;;;;;2.50;2.50;;;;;11.01;70.15;100792.09;4952579;28;45337;-87
2023/01/07 09:54:41;;;;;;;;;1.75;1.75;;;;;11.02;70.36;100779.03;4937164;28;45259;-87
2023/01/07 09:57:16;;;;;;;;;3.00;3.00;;;;;11.01;70.14;100787.75;4932989;28;45357;-88
2023/01/07 09:59:42;;;;;;;;;1.00;1.00;;;;;11.00;70.56;100783.44;4951401;28;45755;-85
2023/01/07 10:02:37;;;;;;;;;2.00;2.00;;;;;10.95;70.22;100789.69;4952402;28;45435;-83
2023/01/07 10:05:41;;;;;;;;;3.00;1.75;;;;;10.90;70.29;100781.16;4952175;28;45399;-85
2023/01/07 10:08:17;;;;;;;;;3.00;1.00;;;;;10.90;70.74;100786.34;4899710;28;48913;-83
2023/01/07 10:10:42;;;;;;;;;1.00;1.00;;;;;10.90;70.73;100784.63;4915439;28;45456;-84
2023/01/07 10:13:42;;;;;;;;;1.00;1.00;;;;;10.88;70.51;100778.59;4915896;28;45405;-85
2023/01/07 10:16:37;;;;;;;;;3.00;2.75;;;;;10.89;70.11;100784.66;4881222;29;45617;-87
2023/01/07 10:19:19;;;;;;;;;5.00;2.00;;;;;10.94;70.48;100762.81;4881492;29;48347;-88
2023/01/07 10:21:52;;;;;;;;;3.00;1.00;;;;;10.99;69.87;100768.69;4881866;29;45294;-88
2023/01/07 10:24:38;;;;;;;;;3.50;1.00;;;;;11.04;70.00;100759.00;4881230;29;45526;-86
2023/01/07 10:27:09;;;;;;;;;2.00;2.00;;;;;11.15;69.84;100766.50;4912250;28;45614;-86
2023/01/07 10:29:38;;;;;;;;;3.75;3.00;;;;;11.29;69.74;100757.38;4899951;28;45693;-88
2023/01/07 10:32:13;;;;;;;;;4.00;3.00;;;;;11.38;69.28;100744.06;4902665;28;45402;-89
2023/01/07 10:34:44;;;;;;;;;2.00;2.00;;;;;11.48;69.00;100739.41;4919772;28;45591;-88
2023/01/07 10:37:32;;;;;;;;;7.00;3.00;;;;;11.57;68.22;100736.50;4887358;28;45412;-86
2023/01/07 10:40:10;;;;;;;;;3.00;3.00;;;;;11.59;67.79;100740.78;4902782;28;46352;-87
2023/01/07 10:42:38;;;;;;;;;6.50;2.00;;;;;11.63;67.98;100726.72;4918826;28;45344;-87
2023/01/07 10:45:19;;;;;;;;;2.00;1.00;;;;;11.67;67.35;100734.47;4898943;28;45533;-83
2023/01/07 10:48:06;;;;;;;;;1.75;1.25;;;;;11.70;67.82;100730.00;4939002;28;45578;-85
2023/01/07 10:50:41;;;;;;;;;2.00;2.00;;;;;11.74;68.21;100709.88;4939853;28;45608;-83
2023/01/07 10:53:25;;;;;;;;;2.50;2.00;;;;;11.77;67.88;100717.56;4938134;28;45293;-84
2023/01/07 10:55:59;;;;;;;;;5.50;2.00;;;;;11.81;66.68;100709.63;4938935;28;45334;-85
2023/01/07 10:58:33;;;;;;;;;2.25;2.00;;;;;11.82;66.97;100707.84;4940015;28;45249;-85
2023/01/07 11:00:59;;;;;;;;;2.75;1.25;;;;;11.87;66.81;100699.84;4940106;28;46309;-84
2023/01/07 11:03:25;;;;;;;;;3.75;2.00;;;;;11.94;66.87;100703.97;4953935;28;65006;-85
2023/01/07 11:05:55;;;;;;;;;2.50;1.00;;;;;12.03;66.11;100700.22;4954334;28;45303;-85
2023/01/07 11:08:41;;;;;;;;;5.50;2.00;;;;;12.15;66.04;100687.56;4937892;28;45692;-84
2023/01/07 11:11:13;;;;;;;;;2.00;2.00;;;;;12.29;65.14;100681.00;4939643;28;46335;-84
2023/01/07 11:13:41;;;;;;;;;2.50;1.50;;;;;12.59;65.26;100684.19;4938279;28;45683;-83
2023/01/07 11:16:10;;;;;;;;;3.25;2.00;;;;;13.05;64.92;100676.34;4938208;28;45387;-83
2023/01/07 11:18:42;;;;;;;;;3.50;2.00;;;;;13.36;62.96;100663.75;4937343;28;45369;-83
2023/01/07 11:21:08;;;;;;;;;1.50;1.25;;;;;13.56;62.85;100672.53;4936384;28;45479;-83
2023/01/07 11:23:34;;;;;;;;;1.00;1.00;;;;;13.72;61.88;100664.88;4937483;28;45539;-84
2023/01/07 11:26:22;;;;;;;;;3.25;3.25;;;;;13.80;61.57;100647.09;4937386;28;45367;-84
2023/01/07 11:28:51;;;;;;;;;3.00;2.00;;;;;13.61;61.05;100640.94;4953705;28;45472;-84
2023/01/07 11:31:18;;;;;;;;;2.25;2.00;;;;;13.27;61.66;100645.81;4938500;28;47639;-87
2023/01/07 11:33:53;;;;;;;;;2.00;0.50;;;;;12.94;62.24;100651.47;4937637;28;45381;-85
2023/01/07 11:36:18;;;;;;;;;2.00;2.00;;;;;12.73;61.79;100647.13;4941284;28;45379;-87
2023/01/07 11:38:45;;;;;;;;;6.00;2.00;;;;;12.57;62.82;100639.91;4939788;28;45491;-87
2023/01/07 11:41:25;;;;;;;;;1.25;1.25;;;;;12.43;63.33;100636.97;4937538;28;47154;-87
2023/01/07 11:43:52;;;;;;;;;3.00;2.00;;;;;12.38;63.56;100644.09;4939460;28;45801;-88
2023/01/07 11:46:19;;;;;;;;;5.75;2.00;;;;;12.34;64.01;100648.59;4939666;28;46281;-87
2023/01/07 11:48:56;;;;;;;;;7.00;2.75;;;;;12.32;64.30;100644.34;4938625;28;45466;-90